sensor_id;sensor_type;location;lat;lon;timestamp;P1;durP1;ratioP1;P2;durP2;ratioP2
42726;SDS011;28372;56.832;60.658;2023-06-24T00:00:00;8.80;;;5.78;;
42726;SDS011;28372;56.832;60.658;2023-06-24T00:02:34;9.18;;;5.63;;
42726;SDS011;28372;56.832;60.658;2023-06-24T00:05:04;9.25;;;5.22;;
42726;SDS011;28372;56.832;60.658;2023-06-24T00:07:34;10.60;;;5.68;;
42726;SDS011;28372;56.832;60.658;2023-06-24T00:10:12;9.63;;;5.55;;
42726;SDS011;28372;56.832;60.658;2023-06-24T00:12:44;11.77;;;5.70;;
42726;SDS011;28372;56.832;60.658;2023-06-24T00:15:12;9.15;;;5.38;;
42726;SDS011;28372;56.832;60.658;2023-06-24T00:17:40;11.48;;;6.05;;
42726;SDS011;28372;56.832;60.658;2023-06-24T00:20:09;11.20;;;5.90;;
42726;SDS011;28372;56.832;60.658;2023-06-24T00:22:40;10.05;;;5.28;;
42726;SDS011;28372;56.832;60.658;2023-06-24T00:25:15;9.95;;;5.88;;
42726;SDS011;28372;56.832;60.658;2023-06-24T00:27:45;9.10;;;5.10;;
42726;SDS011;28372;56.832;60.658;2023-06-24T00:30:13;9.35;;;5.63;;
42726;SDS011;28372;56.832;60.658;2023-06-24T00:32:41;10.57;;;5.38;;
42726;SDS011;28372;56.832;60.658;2023-06-24T00:35:09;9.50;;;5.30;;
42726;SDS011;28372;56.832;60.658;2023-06-24T00:37:39;11.23;;;5.70;;
42726;SDS011;28372;56.832;60.658;2023-06-24T00:40:09;10.88;;;5.60;;
42726;SDS011;28372;56.832;60.658;2023-06-24T00:42:38;8.52;;;5.45;;
42726;SDS011;28372;56.832;60.658;2023-06-24T00:45:06;8.35;;;5.40;;
42726;SDS011;28372;56.832;60.658;2023-06-24T00:47:34;10.05;;;5.63;;
42726;SDS011;28372;56.832;60.658;2023-06-24T00:50:02;11.48;;;5.45;;
42726;SDS011;28372;56.832;60.658;2023-06-24T00:52:30;10.95;;;5.53;;
42726;SDS011;28372;56.832;60.658;2023-06-24T00:54:59;9.32;;;5.15;;
42726;SDS011;28372;56.832;60.658;2023-06-24T00:57:30;9.20;;;5.68;;
42726;SDS011;28372;56.832;60.658;2023-06-24T00:59:59;9.30;;;5.25;;
42726;SDS011;28372;56.832;60.658;2023-06-24T01:02:30;12.35;;;5.80;;
42726;SDS011;28372;56.832;60.658;2023-06-24T01:04:59;11.18;;;5.53;;
42726;SDS011;28372;56.832;60.658;2023-06-24T01:07:29;10.02;;;5.38;;
42726;SDS011;28372;56.832;60.658;2023-06-24T01:09:59;10.93;;;5.50;;
42726;SDS011;28372;56.832;60.658;2023-06-24T01:12:29;7.90;;;5.20;;
42726;SDS011;28372;56.832;60.658;2023-06-24T01:14:57;8.57;;;5.00;;
42726;SDS011;28372;56.832;60.658;2023-06-24T01:17:29;9.00;;;4.97;;
42726;SDS011;28372;56.832;60.658;2023-06-24T01:28:43;7.80;;;4.80;;
42726;SDS011;28372;56.832;60.658;2023-06-24T01:37:08;8.98;;;4.60;;
42726;SDS011;28372;56.832;60.658;2023-06-24T01:39:38;9.57;;;5.07;;
42726;SDS011;28372;56.832;60.658;2023-06-24T01:42:14;9.20;;;4.97;;
42726;SDS011;28372;56.832;60.658;2023-06-24T01:44:45;8.57;;;5.00;;
42726;SDS011;28372;56.832;60.658;2023-06-24T01:47:17;8.30;;;4.97;;
42726;SDS011;28372;56.832;60.658;2023-06-24T01:49:48;8.57;;;4.65;;
42726;SDS011;28372;56.832;60.658;2023-06-24T01:52:22;10.70;;;4.93;;
42726;SDS011;28372;56.832;60.658;2023-06-24T01:54:53;8.38;;;4.93;;
42726;SDS011;28372;56.832;60.658;2023-06-24T01:57:23;9.63;;;5.10;;
42726;SDS011;28372;56.832;60.658;2023-06-24T01:59:53;8.80;;;5.00;;
42726;SDS011;28372;56.832;60.658;2023-06-24T02:02:22;8.95;;;5.40;;
42726;SDS011;28372;56.832;60.658;2023-06-24T02:04:54;8.40;;;5.00;;
42726;SDS011;28372;56.832;60.658;2023-06-24T02:07:23;9.93;;;4.88;;
42726;SDS011;28372;56.832;60.658;2023-06-24T02:09:53;9.65;;;5.00;;
42726;SDS011;28372;56.832;60.658;2023-06-24T02:12:22;12.00;;;5.95;;
42726;SDS011;28372;56.832;60.658;2023-06-24T02:14:51;8.70;;;4.93;;
42726;SDS011;28372;56.832;60.658;2023-06-24T02:17:21;8.10;;;4.60;;
42726;SDS011;28372;56.832;60.658;2023-06-24T02:19:51;9.10;;;4.82;;
42726;SDS011;28372;56.832;60.658;2023-06-24T02:22:21;8.25;;;4.32;;
42726;SDS011;28372;56.832;60.658;2023-06-24T02:24:51;8.05;;;4.70;;
42726;SDS011;28372;56.832;60.658;2023-06-24T02:27:21;7.70;;;4.70;;
42726;SDS011;28372;56.832;60.658;2023-06-24T02:29:49;7.22;;;4.65;;
42726;SDS011;28372;56.832;60.658;2023-06-24T02:32:18;9.48;;;4.97;;
42726;SDS011;28372;56.832;60.658;2023-06-24T02:34:46;8.52;;;5.10;;
42726;SDS011;28372;56.832;60.658;2023-06-24T02:37:14;8.38;;;5.10;;
42726;SDS011;28372;56.832;60.658;2023-06-24T02:39:41;8.40;;;5.03;;
42726;SDS011;28372;56.832;60.658;2023-06-24T02:42:11;8.57;;;5.07;;
42726;SDS011;28372;56.832;60.658;2023-06-24T02:44:39;7.43;;;4.75;;
42726;SDS011;28372;56.832;60.658;2023-06-24T02:47:09;8.77;;;5.47;;
42726;SDS011;28372;56.832;60.658;2023-06-24T02:49:41;8.73;;;5.35;;
42726;SDS011;28372;56.832;60.658;2023-06-24T02:52:13;12.80;;;5.40;;
42726;SDS011;28372;56.832;60.658;2023-06-24T02:54:42;8.70;;;5.72;;
42726;SDS011;28372;56.832;60.658;2023-06-24T02:57:29;10.65;;;5.50;;
42726;SDS011;28372;56.832;60.658;2023-06-24T03:00:19;11.02;;;6.05;;
42726;SDS011;28372;56.832;60.658;2023-06-24T03:03:15;10.60;;;5.63;;
42726;SDS011;28372;56.832;60.658;2023-06-24T03:05:50;9.55;;;5.88;;
42726;SDS011;28372;56.832;60.658;2023-06-24T03:08:21;11.13;;;5.63;;
42726;SDS011;28372;56.832;60.658;2023-06-24T03:10:54;12.45;;;5.35;;
42726;SDS011;28372;56.832;60.658;2023-06-24T03:16:00;9.43;;;5.18;;
42726;SDS011;28372;56.832;60.658;2023-06-24T03:18:31;9.40;;;5.45;;
42726;SDS011;28372;56.832;60.658;2023-06-24T03:20:59;8.15;;;5.10;;
42726;SDS011;28372;56.832;60.658;2023-06-24T03:23:29;12.05;;;5.50;;
42726;SDS011;28372;56.832;60.658;2023-06-24T03:25:58;8.85;;;5.15;;
42726;SDS011;28372;56.832;60.658;2023-06-24T03:28:27;8.68;;;4.85;;
42726;SDS011;28372;56.832;60.658;2023-06-24T03:31:06;7.78;;;5.32;;
42726;SDS011;28372;56.832;60.658;2023-06-24T03:33:33;8.70;;;5.00;;
42726;SDS011;28372;56.832;60.658;2023-06-24T03:36:01;8.98;;;4.97;;
42726;SDS011;28372;56.832;60.658;2023-06-24T03:38:32;11.88;;;5.20;;
42726;SDS011;28372;56.832;60.658;2023-06-24T03:41:00;9.57;;;4.90;;
42726;SDS011;28372;56.832;60.658;2023-06-24T03:43:28;9.45;;;5.00;;
42726;SDS011;28372;56.832;60.658;2023-06-24T03:45:56;9.38;;;5.00;;
42726;SDS011;28372;56.832;60.658;2023-06-24T03:48:24;7.88;;;4.60;;
42726;SDS011;28372;56.832;60.658;2023-06-24T03:51:09;7.07;;;4.70;;
42726;SDS011;28372;56.832;60.658;2023-06-24T03:53:38;9.30;;;4.90;;
42726;SDS011;28372;56.832;60.658;2023-06-24T03:56:06;7.05;;;4.72;;
42726;SDS011;28372;56.832;60.658;2023-06-24T03:58:34;6.60;;;4.10;;
42726;SDS011;28372;56.832;60.658;2023-06-24T04:01:02;6.60;;;4.13;;
42726;SDS011;28372;56.832;60.658;2023-06-24T04:03:30;7.20;;;4.50;;
42726;SDS011;28372;56.832;60.658;2023-06-24T04:05:59;7.90;;;4.25;;
42726;SDS011;28372;56.832;60.658;2023-06-24T04:08:29;6.32;;;4.10;;
42726;SDS011;28372;56.832;60.658;2023-06-24T04:10:57;7.47;;;4.20;;
42726;SDS011;28372;56.832;60.658;2023-06-24T04:13:31;6.40;;;3.80;;
42726;SDS011;28372;56.832;60.658;2023-06-24T04:16:01;9.43;;;3.85;;
42726;SDS011;28372;56.832;60.658;2023-06-24T04:18:29;6.25;;;4.20;;
42726;SDS011;28372;56.832;60.658;2023-06-24T04:20:57;7.03;;;4.20;;
42726;SDS011;28372;56.832;60.658;2023-06-24T04:23:24;6.57;;;3.92;;
42726;SDS011;28372;56.832;60.658;2023-06-24T04:25:52;6.35;;;4.10;;
42726;SDS011;28372;56.832;60.658;2023-06-24T04:28:20;6.93;;;4.22;;
42726;SDS011;28372;56.832;60.658;2023-06-24T04:30:49;5.43;;;4.30;;
42726;SDS011;28372;56.832;60.658;2023-06-24T04:33:18;6.80;;;4.30;;
42726;SDS011;28372;56.832;60.658;2023-06-24T04:35:46;6.20;;;4.13;;
42726;SDS011;28372;56.832;60.658;2023-06-24T04:38:14;6.40;;;4.18;;
42726;SDS011;28372;56.832;60.658;2023-06-24T04:40:47;6.80;;;3.95;;
42726;SDS011;28372;56.832;60.658;2023-06-24T04:43:14;6.47;;;3.75;;
42726;SDS011;28372;56.832;60.658;2023-06-24T04:45:42;8.07;;;3.72;;
42726;SDS011;28372;56.832;60.658;2023-06-24T04:48:10;7.50;;;3.72;;
42726;SDS011;28372;56.832;60.658;2023-06-24T04:50:37;6.13;;;3.85;;
42726;SDS011;28372;56.832;60.658;2023-06-24T04:53:05;4.88;;;3.67;;
42726;SDS011;28372;56.832;60.658;2023-06-24T04:55:33;6.63;;;3.88;;
42726;SDS011;28372;56.832;60.658;2023-06-24T04:58:01;6.18;;;3.90;;
42726;SDS011;28372;56.832;60.658;2023-06-24T05:00:29;5.88;;;3.97;;
42726;SDS011;28372;56.832;60.658;2023-06-24T05:02:56;6.00;;;3.72;;
42726;SDS011;28372;56.832;60.658;2023-06-24T05:05:24;6.93;;;4.07;;
42726;SDS011;28372;56.832;60.658;2023-06-24T05:07:52;6.50;;;4.03;;
42726;SDS011;28372;56.832;60.658;2023-06-24T05:10:20;5.93;;;3.63;;
42726;SDS011;28372;56.832;60.658;2023-06-24T05:12:48;4.75;;;3.70;;
42726;SDS011;28372;56.832;60.658;2023-06-24T05:15:15;6.38;;;3.78;;
42726;SDS011;28372;56.832;60.658;2023-06-24T05:17:43;5.50;;;3.38;;
42726;SDS011;28372;56.832;60.658;2023-06-24T05:20:11;4.88;;;3.42;;
42726;SDS011;28372;56.832;60.658;2023-06-24T05:22:39;6.43;;;3.70;;
42726;SDS011;28372;56.832;60.658;2023-06-24T05:25:06;7.32;;;3.80;;
42726;SDS011;28372;56.832;60.658;2023-06-24T05:27:34;6.30;;;3.75;;
42726;SDS011;28372;56.832;60.658;2023-06-24T05:30:02;6.70;;;3.80;;
42726;SDS011;28372;56.832;60.658;2023-06-24T05:32:32;5.93;;;3.53;;
42726;SDS011;28372;56.832;60.658;2023-06-24T05:35:00;5.50;;;3.42;;
42726;SDS011;28372;56.832;60.658;2023-06-24T05:37:29;5.35;;;3.65;;
42726;SDS011;28372;56.832;60.658;2023-06-24T05:39:57;7.60;;;3.70;;
42726;SDS011;28372;56.832;60.658;2023-06-24T05:42:29;7.78;;;3.95;;
42726;SDS011;28372;56.832;60.658;2023-06-24T05:44:57;5.53;;;3.70;;
42726;SDS011;28372;56.832;60.658;2023-06-24T05:47:25;7.30;;;3.75;;
42726;SDS011;28372;56.832;60.658;2023-06-24T05:49:52;6.32;;;3.80;;
42726;SDS011;28372;56.832;60.658;2023-06-24T05:52:20;5.65;;;3.78;;
42726;SDS011;28372;56.832;60.658;2023-06-24T05:54:48;5.43;;;3.58;;
42726;SDS011;28372;56.832;60.658;2023-06-24T05:57:15;6.13;;;3.63;;
42726;SDS011;28372;56.832;60.658;2023-06-24T05:59:43;5.80;;;3.78;;
42726;SDS011;28372;56.832;60.658;2023-06-24T06:02:11;6.35;;;3.50;;
42726;SDS011;28372;56.832;60.658;2023-06-24T06:04:38;7.10;;;4.03;;
42726;SDS011;28372;56.832;60.658;2023-06-24T06:07:06;4.82;;;3.80;;
42726;SDS011;28372;56.832;60.658;2023-06-24T06:09:34;6.72;;;3.88;;
42726;SDS011;28372;56.832;60.658;2023-06-24T06:12:01;4.18;;;3.58;;
42726;SDS011;28372;56.832;60.658;2023-06-24T06:14:29;5.53;;;3.35;;
42726;SDS011;28372;56.832;60.658;2023-06-24T06:16:57;5.90;;;3.47;;
42726;SDS011;28372;56.832;60.658;2023-06-24T06:19:25;5.03;;;3.80;;
42726;SDS011;28372;56.832;60.658;2023-06-24T06:21:52;4.78;;;3.70;;
42726;SDS011;28372;56.832;60.658;2023-06-24T06:24:20;7.45;;;3.42;;
42726;SDS011;28372;56.832;60.658;2023-06-24T06:26:48;6.00;;;3.58;;
42726;SDS011;28372;56.832;60.658;2023-06-24T06:29:15;6.88;;;3.65;;
42726;SDS011;28372;56.832;60.658;2023-06-24T06:31:43;4.82;;;3.80;;
42726;SDS011;28372;56.832;60.658;2023-06-24T06:34:10;4.80;;;3.40;;
42726;SDS011;28372;56.832;60.658;2023-06-24T06:36:38;6.40;;;3.83;;
42726;SDS011;28372;56.832;60.658;2023-06-24T06:39:06;4.55;;;3.72;;
42726;SDS011;28372;56.832;60.658;2023-06-24T06:41:33;4.95;;;3.85;;
42726;SDS011;28372;56.832;60.658;2023-06-24T06:44:01;6.18;;;3.90;;
42726;SDS011;28372;56.832;60.658;2023-06-24T06:46:30;6.93;;;3.75;;
42726;SDS011;28372;56.832;60.658;2023-06-24T06:48:58;4.40;;;3.60;;
42726;SDS011;28372;56.832;60.658;2023-06-24T06:51:27;4.78;;;3.33;;
42726;SDS011;28372;56.832;60.658;2023-06-24T06:53:54;5.35;;;3.38;;
42726;SDS011;28372;56.832;60.658;2023-06-24T06:56:22;5.35;;;3.65;;
42726;SDS011;28372;56.832;60.658;2023-06-24T06:58:51;5.75;;;3.83;;
42726;SDS011;28372;56.832;60.658;2023-06-24T07:01:20;6.72;;;4.35;;
42726;SDS011;28372;56.832;60.658;2023-06-24T07:03:48;4.22;;;3.28;;
42726;SDS011;28372;56.832;60.658;2023-06-24T07:06:17;3.80;;;3.08;;
42726;SDS011;28372;56.832;60.658;2023-06-24T07:08:46;4.22;;;3.30;;
42726;SDS011;28372;56.832;60.658;2023-06-24T07:11:14;4.68;;;3.60;;
42726;SDS011;28372;56.832;60.658;2023-06-24T07:13:42;5.47;;;3.40;;
42726;SDS011;28372;56.832;60.658;2023-06-24T07:16:09;6.47;;;4.65;;
42726;SDS011;28372;56.832;60.658;2023-06-24T07:18:37;5.13;;;3.60;;
42726;SDS011;28372;56.832;60.658;2023-06-24T07:21:05;6.63;;;3.63;;
42726;SDS011;28372;56.832;60.658;2023-06-24T07:23:32;5.95;;;3.50;;
42726;SDS011;28372;56.832;60.658;2023-06-24T07:26:00;4.38;;;3.60;;
42726;SDS011;28372;56.832;60.658;2023-06-24T07:28:30;6.97;;;3.40;;
42726;SDS011;28372;56.832;60.658;2023-06-24T07:30:57;4.07;;;3.40;;
42726;SDS011;28372;56.832;60.658;2023-06-24T07:33:25;4.78;;;3.60;;
42726;SDS011;28372;56.832;60.658;2023-06-24T07:35:53;4.60;;;3.65;;
42726;SDS011;28372;56.832;60.658;2023-06-24T07:38:21;5.18;;;4.20;;
42726;SDS011;28372;56.832;60.658;2023-06-24T07:40:48;5.22;;;3.97;;
42726;SDS011;28372;56.832;60.658;2023-06-24T07:43:16;4.15;;;3.50;;
42726;SDS011;28372;56.832;60.658;2023-06-24T07:45:44;6.00;;;3.70;;
42726;SDS011;28372;56.832;60.658;2023-06-24T07:48:12;4.93;;;3.80;;
42726;SDS011;28372;56.832;60.658;2023-06-24T07:50:39;6.63;;;3.97;;
42726;SDS011;28372;56.832;60.658;2023-06-24T07:53:07;4.95;;;3.65;;
42726;SDS011;28372;56.832;60.658;2023-06-24T07:55:34;5.30;;;3.72;;
42726;SDS011;28372;56.832;60.658;2023-06-24T07:58:02;5.63;;;3.85;;
42726;SDS011;28372;56.832;60.658;2023-06-24T08:00:30;4.80;;;3.80;;
42726;SDS011;28372;56.832;60.658;2023-06-24T08:02:58;6.57;;;3.65;;
42726;SDS011;28372;56.832;60.658;2023-06-24T08:05:27;5.35;;;3.60;;
42726;SDS011;28372;56.832;60.658;2023-06-24T08:07:54;5.55;;;3.45;;
42726;SDS011;28372;56.832;60.658;2023-06-24T08:10:22;3.90;;;3.50;;
42726;SDS011;28372;56.832;60.658;2023-06-24T08:12:50;6.53;;;3.22;;
42726;SDS011;28372;56.832;60.658;2023-06-24T08:15:18;6.10;;;3.72;;
42726;SDS011;28372;56.832;60.658;2023-06-24T08:17:50;6.72;;;3.78;;
42726;SDS011;28372;56.832;60.658;2023-06-24T08:20:21;6.38;;;3.80;;
42726;SDS011;28372;56.832;60.658;2023-06-24T08:22:50;5.40;;;3.92;;
42726;SDS011;28372;56.832;60.658;2023-06-24T08:25:17;6.70;;;4.25;;
42726;SDS011;28372;56.832;60.658;2023-06-24T08:27:45;6.70;;;4.18;;
42726;SDS011;28372;56.832;60.658;2023-06-24T08:30:14;5.60;;;4.00;;
42726;SDS011;28372;56.832;60.658;2023-06-24T08:32:42;7.15;;;4.00;;
42726;SDS011;28372;56.832;60.658;2023-06-24T08:35:10;4.80;;;3.90;;
42726;SDS011;28372;56.832;60.658;2023-06-24T08:37:38;4.85;;;3.45;;
42726;SDS011;28372;56.832;60.658;2023-06-24T08:40:06;4.63;;;3.92;;
42726;SDS011;28372;56.832;60.658;2023-06-24T08:42:33;4.90;;;3.75;;
42726;SDS011;28372;56.832;60.658;2023-06-24T08:45:01;6.53;;;3.80;;
42726;SDS011;28372;56.832;60.658;2023-06-24T08:47:30;5.85;;;4.20;;
42726;SDS011;28372;56.832;60.658;2023-06-24T08:50:01;7.82;;;3.63;;
42726;SDS011;28372;56.832;60.658;2023-06-24T08:52:35;6.53;;;3.90;;
42726;SDS011;28372;56.832;60.658;2023-06-24T08:55:06;6.82;;;3.70;;
42726;SDS011;28372;56.832;60.658;2023-06-24T08:57:35;7.15;;;4.15;;
42726;SDS011;28372;56.832;60.658;2023-06-24T09:00:03;5.30;;;3.60;;
42726;SDS011;28372;56.832;60.658;2023-06-24T09:02:36;6.10;;;3.60;;
42726;SDS011;28372;56.832;60.658;2023-06-24T09:05:06;5.05;;;3.80;;
42726;SDS011;28372;56.832;60.658;2023-06-24T09:07:34;8.63;;;3.92;;
42726;SDS011;28372;56.832;60.658;2023-06-24T09:10:02;7.88;;;4.32;;
42726;SDS011;28372;56.832;60.658;2023-06-24T09:12:32;7.65;;;3.75;;
42726;SDS011;28372;56.832;60.658;2023-06-24T09:15:01;5.20;;;3.75;;
42726;SDS011;28372;56.832;60.658;2023-06-24T09:17:33;4.32;;;3.25;;
42726;SDS011;28372;56.832;60.658;2023-06-24T09:20:11;4.47;;;3.40;;
42726;SDS011;28372;56.832;60.658;2023-06-24T09:22:42;5.25;;;3.97;;
42726;SDS011;28372;56.832;60.658;2023-06-24T09:25:13;5.22;;;3.75;;
42726;SDS011;28372;56.832;60.658;2023-06-24T09:27:48;5.82;;;3.80;;
42726;SDS011;28372;56.832;60.658;2023-06-24T09:30:20;10.43;;;4.32;;
42726;SDS011;28372;56.832;60.658;2023-06-24T09:32:49;6.45;;;4.00;;
42726;SDS011;28372;56.832;60.658;2023-06-24T09:35:25;5.45;;;3.72;;
42726;SDS011;28372;56.832;60.658;2023-06-24T09:37:54;4.63;;;3.38;;
42726;SDS011;28372;56.832;60.658;2023-06-24T09:40:23;4.85;;;3.17;;
42726;SDS011;28372;56.832;60.658;2023-06-24T09:42:51;7.30;;;3.20;;
42726;SDS011;28372;56.832;60.658;2023-06-24T09:45:22;5.43;;;3.15;;
42726;SDS011;28372;56.832;60.658;2023-06-24T09:47:55;4.68;;;3.65;;
42726;SDS011;28372;56.832;60.658;2023-06-24T09:50:25;6.30;;;3.92;;
42726;SDS011;28372;56.832;60.658;2023-06-24T09:52:52;7.28;;;3.45;;
42726;SDS011;28372;56.832;60.658;2023-06-24T09:55:22;7.95;;;3.95;;
42726;SDS011;28372;56.832;60.658;2023-06-24T09:57:50;6.80;;;3.67;;
42726;SDS011;28372;56.832;60.658;2023-06-24T10:00:20;9.55;;;3.80;;
42726;SDS011;28372;56.832;60.658;2023-06-24T10:02:49;6.05;;;3.67;;
42726;SDS011;28372;56.832;60.658;2023-06-24T10:05:21;5.28;;;3.42;;
42726;SDS011;28372;56.832;60.658;2023-06-24T10:07:49;6.05;;;3.95;;
42726;SDS011;28372;56.832;60.658;2023-06-24T10:10:17;4.75;;;3.13;;
42726;SDS011;28372;56.832;60.658;2023-06-24T10:12:45;7.47;;;3.90;;
42726;SDS011;28372;56.832;60.658;2023-06-24T10:15:12;5.00;;;4.05;;
42726;SDS011;28372;56.832;60.658;2023-06-24T10:17:41;6.25;;;3.53;;
42726;SDS011;28372;56.832;60.658;2023-06-24T10:20:09;5.40;;;3.10;;
42726;SDS011;28372;56.832;60.658;2023-06-24T10:22:37;5.03;;;3.28;;
42726;SDS011;28372;56.832;60.658;2023-06-24T10:25:05;5.60;;;3.30;;
42726;SDS011;28372;56.832;60.658;2023-06-24T10:27:38;4.90;;;3.42;;
42726;SDS011;28372;56.832;60.658;2023-06-24T10:30:07;6.50;;;3.40;;
42726;SDS011;28372;56.832;60.658;2023-06-24T10:32:41;4.90;;;3.53;;
42726;SDS011;28372;56.832;60.658;2023-06-24T10:35:23;4.80;;;3.80;;
42726;SDS011;28372;56.832;60.658;2023-06-24T10:38:01;6.85;;;3.65;;
42726;SDS011;28372;56.832;60.658;2023-06-24T10:43:26;7.97;;;4.03;;
42726;SDS011;28372;56.832;60.658;2023-06-24T10:45:56;7.50;;;4.15;;
42726;SDS011;28372;56.832;60.658;2023-06-24T10:48:25;7.22;;;3.92;;
42726;SDS011;28372;56.832;60.658;2023-06-24T10:50:53;6.07;;;4.32;;
42726;SDS011;28372;56.832;60.658;2023-06-24T10:53:21;12.48;;;8.18;;
42726;SDS011;28372;56.832;60.658;2023-06-24T10:55:49;6.18;;;4.18;;
42726;SDS011;28372;56.832;60.658;2023-06-24T10:58:17;6.72;;;4.28;;
42726;SDS011;28372;56.832;60.658;2023-06-24T11:00:45;5.65;;;4.18;;
42726;SDS011;28372;56.832;60.658;2023-06-24T11:03:14;6.00;;;4.20;;
42726;SDS011;28372;56.832;60.658;2023-06-24T11:05:45;6.53;;;4.22;;
42726;SDS011;28372;56.832;60.658;2023-06-24T11:08:13;6.65;;;4.05;;
42726;SDS011;28372;56.832;60.658;2023-06-24T11:10:45;10.25;;;4.28;;
42726;SDS011;28372;56.832;60.658;2023-06-24T11:13:14;7.20;;;4.63;;
42726;SDS011;28372;56.832;60.658;2023-06-24T11:15:42;6.50;;;4.40;;
42726;SDS011;28372;56.832;60.658;2023-06-24T11:18:10;7.78;;;4.10;;
42726;SDS011;28372;56.832;60.658;2023-06-24T11:20:39;7.00;;;4.28;;
42726;SDS011;28372;56.832;60.658;2023-06-24T11:23:09;6.80;;;4.15;;
42726;SDS011;28372;56.832;60.658;2023-06-24T11:25:42;7.55;;;5.30;;
42726;SDS011;28372;56.832;60.658;2023-06-24T11:28:14;6.63;;;4.60;;
42726;SDS011;28372;56.832;60.658;2023-06-24T11:30:49;8.63;;;4.38;;
42726;SDS011;28372;56.832;60.658;2023-06-24T11:33:27;7.13;;;4.28;;
42726;SDS011;28372;56.832;60.658;2023-06-24T11:35:55;6.72;;;4.30;;
42726;SDS011;28372;56.832;60.658;2023-06-24T11:38:23;8.57;;;4.55;;
42726;SDS011;28372;56.832;60.658;2023-06-24T11:40:51;6.53;;;4.40;;
42726;SDS011;28372;56.832;60.658;2023-06-24T11:43:19;8.20;;;4.40;;
42726;SDS011;28372;56.832;60.658;2023-06-24T11:45:47;7.35;;;4.43;;
42726;SDS011;28372;56.832;60.658;2023-06-24T11:48:15;5.88;;;4.30;;
42726;SDS011;28372;56.832;60.658;2023-06-24T11:50:43;6.30;;;4.35;;
42726;SDS011;28372;56.832;60.658;2023-06-24T11:53:11;7.28;;;4.25;;
42726;SDS011;28372;56.832;60.658;2023-06-24T11:55:38;5.03;;;3.80;;
42726;SDS011;28372;56.832;60.658;2023-06-24T11:58:06;5.07;;;3.60;;
42726;SDS011;28372;56.832;60.658;2023-06-24T12:00:40;5.90;;;4.30;;
42726;SDS011;28372;56.832;60.658;2023-06-24T12:03:10;6.68;;;3.97;;
42726;SDS011;28372;56.832;60.658;2023-06-24T12:05:39;6.65;;;3.90;;
42726;SDS011;28372;56.832;60.658;2023-06-24T12:08:13;6.25;;;3.92;;
42726;SDS011;28372;56.832;60.658;2023-06-24T12:10:43;10.52;;;3.97;;
42726;SDS011;28372;56.832;60.658;2023-06-24T12:13:12;5.93;;;3.78;;
42726;SDS011;28372;56.832;60.658;2023-06-24T12:15:40;7.47;;;3.88;;
42726;SDS011;28372;56.832;60.658;2023-06-24T12:18:08;7.18;;;3.95;;
42726;SDS011;28372;56.832;60.658;2023-06-24T12:20:36;6.15;;;3.92;;
42726;SDS011;28372;56.832;60.658;2023-06-24T12:23:05;7.70;;;4.15;;
42726;SDS011;28372;56.832;60.658;2023-06-24T12:25:33;6.47;;;3.85;;
42726;SDS011;28372;56.832;60.658;2023-06-24T12:28:01;6.25;;;4.38;;
42726;SDS011;28372;56.832;60.658;2023-06-24T12:30:28;9.25;;;4.10;;
42726;SDS011;28372;56.832;60.658;2023-06-24T12:32:56;6.05;;;3.92;;
42726;SDS011;28372;56.832;60.658;2023-06-24T12:35:24;7.22;;;3.92;;
42726;SDS011;28372;56.832;60.658;2023-06-24T12:37:55;7.10;;;4.00;;
42726;SDS011;28372;56.832;60.658;2023-06-24T12:40:23;7.95;;;4.10;;
42726;SDS011;28372;56.832;60.658;2023-06-24T12:42:50;11.07;;;3.80;;
42726;SDS011;28372;56.832;60.658;2023-06-24T12:45:18;5.38;;;3.53;;
42726;SDS011;28372;56.832;60.658;2023-06-24T12:47:46;7.55;;;3.58;;
42726;SDS011;28372;56.832;60.658;2023-06-24T12:50:14;4.82;;;3.30;;
42726;SDS011;28372;56.832;60.658;2023-06-24T12:52:42;5.82;;;3.30;;
42726;SDS011;28372;56.832;60.658;2023-06-24T12:55:09;6.60;;;3.40;;
42726;SDS011;28372;56.832;60.658;2023-06-24T12:57:41;4.50;;;3.28;;
42726;SDS011;28372;56.832;60.658;2023-06-24T13:00:09;4.93;;;3.10;;
42726;SDS011;28372;56.832;60.658;2023-06-24T13:02:38;8.32;;;3.15;;
42726;SDS011;28372;56.832;60.658;2023-06-24T13:05:06;5.45;;;3.22;;
42726;SDS011;28372;56.832;60.658;2023-06-24T13:07:34;5.25;;;3.05;;
42726;SDS011;28372;56.832;60.658;2023-06-24T13:10:03;5.32;;;2.92;;
42726;SDS011;28372;56.832;60.658;2023-06-24T13:12:33;5.35;;;3.05;;
42726;SDS011;28372;56.832;60.658;2023-06-24T13:15:05;4.50;;;2.85;;
42726;SDS011;28372;56.832;60.658;2023-06-24T13:17:33;5.97;;;2.80;;
42726;SDS011;28372;56.832;60.658;2023-06-24T13:20:01;8.30;;;3.10;;
42726;SDS011;28372;56.832;60.658;2023-06-24T13:22:31;8.38;;;4.00;;
42726;SDS011;28372;56.832;60.658;2023-06-24T13:24:59;10.27;;;4.00;;
42726;SDS011;28372;56.832;60.658;2023-06-24T13:27:31;13.18;;;4.20;;
42726;SDS011;28372;56.832;60.658;2023-06-24T13:29:59;13.18;;;4.32;;
42726;SDS011;28372;56.832;60.658;2023-06-24T13:32:28;12.63;;;3.95;;
42726;SDS011;28372;56.832;60.658;2023-06-24T13:34:55;9.93;;;3.63;;
42726;SDS011;28372;56.832;60.658;2023-06-24T13:37:24;10.32;;;4.50;;
42726;SDS011;28372;56.832;60.658;2023-06-24T13:39:52;9.30;;;4.32;;
42726;SDS011;28372;56.832;60.658;2023-06-24T13:42:20;11.43;;;4.45;;
42726;SDS011;28372;56.832;60.658;2023-06-24T13:44:47;13.40;;;4.65;;
42726;SDS011;28372;56.832;60.658;2023-06-24T13:47:15;8.60;;;4.47;;
42726;SDS011;28372;56.832;60.658;2023-06-24T13:49:42;9.38;;;3.92;;
42726;SDS011;28372;56.832;60.658;2023-06-24T13:52:10;8.70;;;4.28;;
42726;SDS011;28372;56.832;60.658;2023-06-24T13:54:38;13.57;;;5.00;;
42726;SDS011;28372;56.832;60.658;2023-06-24T13:57:05;8.52;;;4.65;;
42726;SDS011;28372;56.832;60.658;2023-06-24T13:59:33;8.30;;;4.07;;
42726;SDS011;28372;56.832;60.658;2023-06-24T14:02:01;9.10;;;4.80;;
42726;SDS011;28372;56.832;60.658;2023-06-24T14:04:29;10.15;;;4.65;;
42726;SDS011;28372;56.832;60.658;2023-06-24T14:06:57;8.43;;;4.38;;
42726;SDS011;28372;56.832;60.658;2023-06-24T14:09:25;6.85;;;4.18;;
42726;SDS011;28372;56.832;60.658;2023-06-24T14:11:52;7.88;;;4.28;;
42726;SDS011;28372;56.832;60.658;2023-06-24T14:14:20;7.97;;;4.00;;
42726;SDS011;28372;56.832;60.658;2023-06-24T14:16:48;6.60;;;3.55;;
42726;SDS011;28372;56.832;60.658;2023-06-24T14:19:16;6.30;;;3.58;;
42726;SDS011;28372;56.832;60.658;2023-06-24T14:21:44;5.88;;;3.70;;
42726;SDS011;28372;56.832;60.658;2023-06-24T14:24:12;5.10;;;3.30;;
42726;SDS011;28372;56.832;60.658;2023-06-24T14:26:43;7.20;;;3.50;;
42726;SDS011;28372;56.832;60.658;2023-06-24T14:29:11;8.13;;;4.07;;
42726;SDS011;28372;56.832;60.658;2023-06-24T14:31:39;5.60;;;3.60;;
42726;SDS011;28372;56.832;60.658;2023-06-24T14:34:07;6.47;;;3.72;;
42726;SDS011;28372;56.832;60.658;2023-06-24T14:36:35;7.25;;;3.25;;
42726;SDS011;28372;56.832;60.658;2023-06-24T14:39:02;5.15;;;3.50;;
42726;SDS011;28372;56.832;60.658;2023-06-24T14:41:30;5.38;;;3.25;;
42726;SDS011;28372;56.832;60.658;2023-06-24T14:43:58;5.53;;;3.60;;
42726;SDS011;28372;56.832;60.658;2023-06-24T14:46:26;5.95;;;3.53;;
42726;SDS011;28372;56.832;60.658;2023-06-24T14:48:53;4.90;;;3.40;;
42726;SDS011;28372;56.832;60.658;2023-06-24T14:51:21;4.60;;;3.20;;
42726;SDS011;28372;56.832;60.658;2023-06-24T14:53:51;7.55;;;3.42;;
42726;SDS011;28372;56.832;60.658;2023-06-24T14:56:18;6.60;;;3.90;;
42726;SDS011;28372;56.832;60.658;2023-06-24T14:58:46;8.00;;;3.67;;
42726;SDS011;28372;56.832;60.658;2023-06-24T15:01:14;5.47;;;3.28;;
42726;SDS011;28372;56.832;60.658;2023-06-24T15:03:42;5.47;;;3.42;;